TimeAKDT,TemperatureF,Dew PointF,Humidity,Sea Level PressureIn,VisibilityMPH,Wind Direction,Wind SpeedMPH,Gust SpeedMPH,PrecipitationIn,Events,Conditions,WindDirDegrees,DateUTC
12:16 AM,62.6,44.6,52,30.14,10.0,WNW,5.8,-,N/A,,Overcast,290,2013-06-15 08:16:00
12:36 AM,62.6,44.6,52,30.14,10.0,WNW,5.8,-,N/A,,Overcast,290,2013-06-15 08:36:00
12:56 AM,62.6,44.6,52,30.14,10.0,West,6.9,-,N/A,,Overcast,280,2013-06-15 08:56:00
1:16 AM,60.8,44.6,55,30.14,10.0,West,3.5,-,N/A,,Overcast,260,2013-06-15 09:16:00
1:36 AM,60.8,44.6,55,30.15,10.0,SW,5.8,-,N/A,,Overcast,220,2013-06-15 09:36:00
1:56 AM,57.2,44.6,63,30.16,10.0,South,4.6,-,N/A,,Overcast,190,2013-06-15 09:56:00
2:16 AM,57.2,44.6,63,30.16,10.0,SSW,3.5,-,N/A,,Overcast,200,2013-06-15 10:16:00
2:36 AM,55.4,44.6,67,30.17,10.0,SSW,4.6,-,N/A,,Overcast,210,2013-06-15 10:36:00
2:56 AM,53.6,46.4,77,30.17,10.0,SSW,3.5,-,N/A,,Overcast,210,2013-06-15 10:56:00
3:16 AM,53.6,46.4,77,30.18,10.0,SSW,3.5,-,N/A,,Overcast,210,2013-06-15 11:16:00
3:36 AM,51.8,46.4,82,30.18,10.0,Calm,Calm,-,0.01,,Overcast,0,2013-06-15 11:36:00
3:56 AM,51.8,46.4,82,30.19,10.0,Calm,Calm,-,0.01,,Mostly Cloudy,0,2013-06-15 11:56:00
4:16 AM,51.8,46.4,82,30.19,10.0,Calm,Calm,-,N/A,,Scattered Clouds,0,2013-06-15 12:16:00
4:36 AM,51.8,46.4,82,30.19,10.0,Calm,Calm,-,N/A,,Scattered Clouds,0,2013-06-15 12:36:00
4:56 AM,51.8,46.4,82,30.19,10.0,Calm,Calm,-,N/A,,Partly Cloudy,0,2013-06-15 12:56:00
5:16 AM,51.8,46.4,82,30.19,10.0,Calm,Calm,-,N/A,,Clear,0,2013-06-15 13:16:00
5:36 AM,50.0,46.4,87,30.19,10.0,Calm,Calm,-,N/A,,Clear,0,2013-06-15 13:36:00
5:56 AM,50.0,46.4,87,30.20,10.0,Calm,Calm,-,N/A,,Clear,0,2013-06-15 13:56:00
6:16 AM,51.8,44.6,76,30.20,10.0,Calm,Calm,-,N/A,,Clear,0,2013-06-15 14:16:00
6:36 AM,51.8,46.4,82,30.21,10.0,Calm,Calm,-,N/A,,Clear,0,2013-06-15 14:36:00
6:56 AM,51.8,46.4,82,30.20,10.0,SE,3.5,-,N/A,,Clear,140,2013-06-15 14:56:00
7:16 AM,51.8,46.4,82,30.20,10.0,SSE,3.5,-,N/A,,Partly Cloudy,160,2013-06-15 15:16:00
7:36 AM,51.8,46.4,82,30.21,10.0,South,3.5,-,N/A,,Mostly Cloudy,180,2013-06-15 15:36:00
7:56 AM,51.8,46.4,82,30.21,10.0,Calm,Calm,-,N/A,,Overcast,0,2013-06-15 15:56:00
8:16 AM,51.8,46.4,82,30.21,10.0,Calm,Calm,-,N/A,,Overcast,0,2013-06-15 16:16:00
8:36 AM,51.8,46.4,82,30.21,10.0,Calm,Calm,-,N/A,,Scattered Clouds,0,2013-06-15 16:36:00
8:56 AM,53.6,46.4,77,30.21,10.0,SSE,3.5,-,N/A,,Mostly Cloudy,160,2013-06-15 16:56:00
9:16 AM,53.6,46.4,77,30.22,10.0,Calm,Calm,-,N/A,,Overcast,0,2013-06-15 17:16:00
9:36 AM,53.6,46.4,77,30.22,10.0,Calm,Calm,-,N/A,,Overcast,0,2013-06-15 17:36:00
9:56 AM,53.6,46.4,77,30.22,10.0,ESE,3.5,-,N/A,,Overcast,120,2013-06-15 17:56:00
10:16 AM,53.6,48.2,82,30.22,10.0,Calm,Calm,-,N/A,,Overcast,0,2013-06-15 18:16:00
10:36 AM,53.6,46.4,77,30.22,10.0,SE,3.5,-,N/A,,Overcast,130,2013-06-15 18:36:00
10:56 AM,53.6,48.2,82,30.22,10.0,Calm,Calm,-,N/A,,Overcast,0,2013-06-15 18:56:00
11:16 AM,53.6,48.2,82,30.22,10.0,Calm,Calm,-,N/A,,Overcast,0,2013-06-15 19:16:00
11:36 AM,53.6,48.2,82,30.22,10.0,Calm,Calm,-,N/A,,Overcast,0,2013-06-15 19:36:00
11:56 AM,53.6,48.2,82,30.22,10.0,Calm,Calm,-,0.01,,Overcast,0,2013-06-15 19:56:00
12:16 PM,53.6,48.2,82,30.21,10.0,Calm,Calm,-,N/A,,Overcast,0,2013-06-15 20:16:00
12:36 PM,55.4,50.0,82,30.21,10.0,Calm,Calm,-,0.01,,Overcast,0,2013-06-15 20:36:00
12:56 PM,55.4,50.0,82,30.20,10.0,NE,5.8,-,0.01,,Mostly Cloudy,50,2013-06-15 20:56:00
1:16 PM,55.4,51.8,88,30.20,10.0,NE,6.9,-,N/A,,Overcast,50,2013-06-15 21:16:00
1:36 PM,55.4,51.8,88,30.20,10.0,ENE,3.5,-,N/A,,Overcast,70,2013-06-15 21:36:00
1:56 PM,57.2,51.8,82,30.20,10.0,ENE,3.5,-,N/A,,Overcast,60,2013-06-15 21:56:00
2:16 PM,57.2,51.8,82,30.20,10.0,ENE,4.6,-,N/A,,Overcast,60,2013-06-15 22:16:00
2:36 PM,57.2,51.8,82,30.20,10.0,NE,4.6,-,N/A,,Overcast,50,2013-06-15 22:36:00
2:56 PM,57.2,53.6,88,30.19,10.0,ENE,3.5,-,N/A,,Overcast,60,2013-06-15 22:56:00
3:16 PM,57.2,53.6,88,30.19,10.0,NE,3.5,-,N/A,,Overcast,40,2013-06-15 23:16:00
3:36 PM,57.2,53.6,88,30.19,10.0,NE,3.5,-,N/A,,Overcast,50,2013-06-15 23:36:00
3:56 PM,57.2,53.6,88,30.18,10.0,ENE,3.5,-,N/A,,Overcast,60,2013-06-15 23:56:00
4:16 PM,59.0,53.6,82,30.17,10.0,NE,3.5,-,N/A,,Overcast,40,2013-06-16 00:16:00
4:36 PM,60.8,53.6,77,30.17,10.0,ENE,3.5,-,N/A,,Overcast,60,2013-06-16 00:36:00
4:56 PM,60.8,53.6,77,30.17,10.0,NE,4.6,-,N/A,,Overcast,50,2013-06-16 00:56:00
5:16 PM,60.8,53.6,77,30.17,10.0,NE,3.5,-,N/A,,Overcast,50,2013-06-16 01:16:00
5:36 PM,60.8,53.6,77,30.16,10.0,ENE,3.5,-,N/A,,Overcast,70,2013-06-16 01:36:00
5:56 PM,60.8,53.6,77,30.17,10.0,Calm,Calm,-,N/A,,Overcast,0,2013-06-16 01:56:00
6:16 PM,60.8,53.6,77,30.16,10.0,Calm,Calm,-,N/A,,Overcast,0,2013-06-16 02:16:00
6:36 PM,60.8,53.6,77,30.16,10.0,Calm,Calm,-,N/A,,Overcast,0,2013-06-16 02:36:00
6:56 PM,60.8,53.6,77,30.17,10.0,Calm,Calm,-,N/A,,Overcast,0,2013-06-16 02:56:00
7:16 PM,60.8,53.6,77,30.17,10.0,Calm,Calm,-,N/A,,Overcast,0,2013-06-16 03:16:00
7:36 PM,60.8,53.6,77,30.17,10.0,Calm,Calm,-,N/A,,Overcast,0,2013-06-16 03:36:00
7:56 PM,60.8,53.6,77,30.17,10.0,Calm,Calm,-,N/A,,Overcast,0,2013-06-16 03:56:00
8:16 PM,60.8,53.6,77,30.18,10.0,Calm,Calm,-,N/A,,Overcast,0,2013-06-16 04:16:00
8:36 PM,60.8,53.6,77,30.17,10.0,Calm,Calm,-,N/A,,Overcast,0,2013-06-16 04:36:00
8:56 PM,60.8,53.6,77,30.18,10.0,SSW,4.6,-,N/A,,Overcast,210,2013-06-16 04:56:00
9:16 PM,62.6,53.6,72,30.19,10.0,SW,5.8,-,N/A,,Overcast,220,2013-06-16 05:16:00
9:36 PM,62.6,53.6,72,30.19,10.0,WSW,4.6,-,N/A,,Overcast,240,2013-06-16 05:36:00
9:56 PM,62.6,53.6,72,30.19,10.0,Calm,Calm,-,N/A,,Overcast,0,2013-06-16 05:56:00
10:16 PM,60.8,53.6,77,30.19,10.0,Calm,Calm,-,N/A,,Overcast,0,2013-06-16 06:16:00
10:36 PM,59.0,53.6,82,30.20,10.0,Calm,Calm,-,N/A,,Overcast,0,2013-06-16 06:36:00
10:56 PM,57.2,53.6,88,30.20,10.0,NNE,3.5,-,N/A,,Overcast,20,2013-06-16 06:56:00
11:16 PM,57.2,53.6,88,30.21,10.0,Calm,Calm,-,N/A,,Overcast,0,2013-06-16 07:16:00
11:36 PM,57.2,53.6,88,30.22,5.0,North,3.5,-,0.01,,Overcast,10,2013-06-16 07:36:00
11:56 PM,57.2,53.6,88,30.22,6.0,NE,3.5,-,0.01,,Overcast,50,2013-06-16 07:56:00